sensor_id;sensor_type;location;lat;lon;timestamp;temperature;humidity
59973;DHT22;55298;-36.624;-64.282;2024-02-26T00:01:10;23.90;98.90
59973;DHT22;55298;-36.624;-64.282;2024-02-26T00:03:38;23.90;99.20
59973;DHT22;55298;-36.624;-64.282;2024-02-26T00:06:09;23.90;99.80
59973;DHT22;55298;-36.624;-64.282;2024-02-26T00:08:36;23.80;99.80
59973;DHT22;55298;-36.624;-64.282;2024-02-26T00:11:04;23.80;99.90
59973;DHT22;55298;-36.624;-64.282;2024-02-26T00:13:31;23.80;99.90
59973;DHT22;55298;-36.624;-64.282;2024-02-26T00:15:59;23.80;99.90
59973;DHT22;55298;-36.624;-64.282;2024-02-26T00:18:27;23.80;99.90
59973;DHT22;55298;-36.624;-64.282;2024-02-26T00:20:54;23.70;99.90
59973;DHT22;55298;-36.624;-64.282;2024-02-26T00:23:22;23.70;99.90
59973;DHT22;55298;-36.624;-64.282;2024-02-26T00:25:50;23.70;99.90
59973;DHT22;55298;-36.624;-64.282;2024-02-26T00:28:18;23.70;99.90
59973;DHT22;55298;-36.624;-64.282;2024-02-26T00:30:47;23.60;99.90
59973;DHT22;55298;-36.624;-64.282;2024-02-26T00:33:17;23.60;99.90
59973;DHT22;55298;-36.624;-64.282;2024-02-26T00:35:45;23.70;99.90
59973;DHT22;55298;-36.624;-64.282;2024-02-26T00:38:12;23.70;99.90
59973;DHT22;55298;-36.624;-64.282;2024-02-26T00:40:40;23.70;99.90
59973;DHT22;55298;-36.624;-64.282;2024-02-26T00:43:08;23.70;99.90
59973;DHT22;55298;-36.624;-64.282;2024-02-26T00:45:36;23.60;99.90
59973;DHT22;55298;-36.624;-64.282;2024-02-26T00:48:03;23.60;99.90
59973;DHT22;55298;-36.624;-64.282;2024-02-26T00:50:34;23.50;99.90
59973;DHT22;55298;-36.624;-64.282;2024-02-26T00:53:02;23.40;99.90
59973;DHT22;55298;-36.624;-64.282;2024-02-26T00:55:29;23.50;99.90
59973;DHT22;55298;-36.624;-64.282;2024-02-26T00:57:59;23.40;99.90
59973;DHT22;55298;-36.624;-64.282;2024-02-26T01:00:27;23.40;99.90
59973;DHT22;55298;-36.624;-64.282;2024-02-26T01:02:54;23.40;99.90
59973;DHT22;55298;-36.624;-64.282;2024-02-26T01:05:23;23.40;99.90
59973;DHT22;55298;-36.624;-64.282;2024-02-26T01:07:52;23.40;99.90
59973;DHT22;55298;-36.624;-64.282;2024-02-26T01:10:20;23.30;99.90
59973;DHT22;55298;-36.624;-64.282;2024-02-26T01:12:47;23.20;99.90
59973;DHT22;55298;-36.624;-64.282;2024-02-26T01:15:15;23.20;99.90
59973;DHT22;55298;-36.624;-64.282;2024-02-26T01:17:42;23.20;99.90
59973;DHT22;55298;-36.624;-64.282;2024-02-26T01:20:10;23.20;99.90
59973;DHT22;55298;-36.624;-64.282;2024-02-26T01:22:38;23.20;99.90
59973;DHT22;55298;-36.624;-64.282;2024-02-26T01:25:08;23.10;99.90
59973;DHT22;55298;-36.624;-64.282;2024-02-26T01:27:37;23.20;99.90
59973;DHT22;55298;-36.624;-64.282;2024-02-26T01:30:05;23.30;99.90
59973;DHT22;55298;-36.624;-64.282;2024-02-26T01:32:33;23.30;99.90
59973;DHT22;55298;-36.624;-64.282;2024-02-26T01:35:03;23.30;99.90
59973;DHT22;55298;-36.624;-64.282;2024-02-26T01:37:32;23.30;99.90
59973;DHT22;55298;-36.624;-64.282;2024-02-26T01:40:00;23.20;99.90
59973;DHT22;55298;-36.624;-64.282;2024-02-26T01:42:31;23.20;99.90
59973;DHT22;55298;-36.624;-64.282;2024-02-26T01:45:00;23.10;99.90
59973;DHT22;55298;-36.624;-64.282;2024-02-26T01:47:28;23.10;99.90
59973;DHT22;55298;-36.624;-64.282;2024-02-26T01:49:56;23.00;99.90
59973;DHT22;55298;-36.624;-64.282;2024-02-26T01:52:24;23.00;99.90
59973;DHT22;55298;-36.624;-64.282;2024-02-26T01:54:52;23.00;99.90
59973;DHT22;55298;-36.624;-64.282;2024-02-26T01:57:20;23.10;99.90
59973;DHT22;55298;-36.624;-64.282;2024-02-26T01:59:47;23.10;99.90
59973;DHT22;55298;-36.624;-64.282;2024-02-26T02:02:16;23.10;99.90
59973;DHT22;55298;-36.624;-64.282;2024-02-26T02:04:44;23.10;99.90
59973;DHT22;55298;-36.624;-64.282;2024-02-26T02:07:12;23.20;99.90
59973;DHT22;55298;-36.624;-64.282;2024-02-26T02:09:40;23.10;99.90
59973;DHT22;55298;-36.624;-64.282;2024-02-26T02:12:09;23.10;99.90
59973;DHT22;55298;-36.624;-64.282;2024-02-26T02:14:36;23.10;99.90
59973;DHT22;55298;-36.624;-64.282;2024-02-26T02:17:04;23.20;99.90
59973;DHT22;55298;-36.624;-64.282;2024-02-26T02:19:32;23.20;99.90
59973;DHT22;55298;-36.624;-64.282;2024-02-26T02:22:00;23.20;99.90
59973;DHT22;55298;-36.624;-64.282;2024-02-26T02:24:27;23.20;99.90
59973;DHT22;55298;-36.624;-64.282;2024-02-26T02:26:56;23.20;99.90
59973;DHT22;55298;-36.624;-64.282;2024-02-26T02:29:24;23.20;99.90
59973;DHT22;55298;-36.624;-64.282;2024-02-26T02:31:51;23.20;99.90
59973;DHT22;55298;-36.624;-64.282;2024-02-26T02:34:20;23.20;99.90
59973;DHT22;55298;-36.624;-64.282;2024-02-26T02:36:53;23.10;99.90
59973;DHT22;55298;-36.624;-64.282;2024-02-26T02:39:20;23.20;99.90
59973;DHT22;55298;-36.624;-64.282;2024-02-26T02:41:49;23.20;99.90
59973;DHT22;55298;-36.624;-64.282;2024-02-26T02:44:16;23.20;99.90
59973;DHT22;55298;-36.624;-64.282;2024-02-26T02:46:44;23.10;99.90
59973;DHT22;55298;-36.624;-64.282;2024-02-26T02:49:12;23.10;99.90
59973;DHT22;55298;-36.624;-64.282;2024-02-26T02:51:40;23.10;99.90
59973;DHT22;55298;-36.624;-64.282;2024-02-26T02:54:08;23.10;99.90
59973;DHT22;55298;-36.624;-64.282;2024-02-26T02:56:36;23.10;99.90
59973;DHT22;55298;-36.624;-64.282;2024-02-26T02:59:03;23.10;99.90
59973;DHT22;55298;-36.624;-64.282;2024-02-26T03:01:31;23.10;99.90
59973;DHT22;55298;-36.624;-64.282;2024-02-26T03:03:58;23.10;99.90
59973;DHT22;55298;-36.624;-64.282;2024-02-26T03:06:27;23.10;99.90
59973;DHT22;55298;-36.624;-64.282;2024-02-26T03:08:55;23.10;99.90
59973;DHT22;55298;-36.624;-64.282;2024-02-26T03:11:23;23.10;99.90
59973;DHT22;55298;-36.624;-64.282;2024-02-26T03:13:52;23.00;99.90
59973;DHT22;55298;-36.624;-64.282;2024-02-26T03:16:20;23.10;99.90
59973;DHT22;55298;-36.624;-64.282;2024-02-26T03:18:47;23.10;99.90
59973;DHT22;55298;-36.624;-64.282;2024-02-26T03:21:15;23.10;99.90
59973;DHT22;55298;-36.624;-64.282;2024-02-26T03:23:44;23.10;99.90
59973;DHT22;55298;-36.624;-64.282;2024-02-26T03:26:15;23.10;99.90
59973;DHT22;55298;-36.624;-64.282;2024-02-26T03:28:43;23.10;99.90
59973;DHT22;55298;-36.624;-64.282;2024-02-26T03:31:15;23.10;99.90
59973;DHT22;55298;-36.624;-64.282;2024-02-26T03:33:43;23.10;99.90
59973;DHT22;55298;-36.624;-64.282;2024-02-26T03:36:10;23.10;99.90
59973;DHT22;55298;-36.624;-64.282;2024-02-26T03:38:38;23.20;99.90
59973;DHT22;55298;-36.624;-64.282;2024-02-26T03:41:06;23.20;99.90
59973;DHT22;55298;-36.624;-64.282;2024-02-26T03:43:35;23.10;99.90
59973;DHT22;55298;-36.624;-64.282;2024-02-26T03:46:03;23.20;99.90
59973;DHT22;55298;-36.624;-64.282;2024-02-26T03:48:30;23.20;99.90
59973;DHT22;55298;-36.624;-64.282;2024-02-26T03:50:58;23.00;99.90
59973;DHT22;55298;-36.624;-64.282;2024-02-26T03:53:26;23.10;99.90
59973;DHT22;55298;-36.624;-64.282;2024-02-26T03:55:54;23.10;99.90
59973;DHT22;55298;-36.624;-64.282;2024-02-26T03:58:22;23.10;99.90
59973;DHT22;55298;-36.624;-64.282;2024-02-26T04:00:50;23.10;99.90
59973;DHT22;55298;-36.624;-64.282;2024-02-26T04:03:17;23.10;99.90
59973;DHT22;55298;-36.624;-64.282;2024-02-26T04:05:45;23.10;99.90
59973;DHT22;55298;-36.624;-64.282;2024-02-26T04:08:12;23.00;99.90
59973;DHT22;55298;-36.624;-64.282;2024-02-26T04:10:40;23.10;99.90
59973;DHT22;55298;-36.624;-64.282;2024-02-26T04:13:08;23.00;99.90
59973;DHT22;55298;-36.624;-64.282;2024-02-26T04:15:36;23.10;99.90
59973;DHT22;55298;-36.624;-64.282;2024-02-26T04:18:04;23.10;99.90
59973;DHT22;55298;-36.624;-64.282;2024-02-26T04:20:33;23.00;99.90
59973;DHT22;55298;-36.624;-64.282;2024-02-26T04:23:00;22.90;99.90
59973;DHT22;55298;-36.624;-64.282;2024-02-26T04:25:28;23.00;99.90
59973;DHT22;55298;-36.624;-64.282;2024-02-26T04:27:56;23.00;99.90
59973;DHT22;55298;-36.624;-64.282;2024-02-26T04:30:24;22.80;99.90
59973;DHT22;55298;-36.624;-64.282;2024-02-26T04:32:52;22.90;99.90
59973;DHT22;55298;-36.624;-64.282;2024-02-26T04:35:19;22.90;99.90
59973;DHT22;55298;-36.624;-64.282;2024-02-26T04:37:47;22.80;99.90
59973;DHT22;55298;-36.624;-64.282;2024-02-26T04:40:14;22.80;99.90
59973;DHT22;55298;-36.624;-64.282;2024-02-26T04:42:42;22.80;99.90
59973;DHT22;55298;-36.624;-64.282;2024-02-26T04:45:10;22.80;99.90
59973;DHT22;55298;-36.624;-64.282;2024-02-26T04:47:37;22.80;99.90
59973;DHT22;55298;-36.624;-64.282;2024-02-26T04:50:05;22.80;99.90
59973;DHT22;55298;-36.624;-64.282;2024-02-26T04:52:33;22.80;99.90
59973;DHT22;55298;-36.624;-64.282;2024-02-26T04:55:00;22.80;99.90
59973;DHT22;55298;-36.624;-64.282;2024-02-26T04:57:29;22.80;99.90
59973;DHT22;55298;-36.624;-64.282;2024-02-26T04:59:56;22.80;99.90
59973;DHT22;55298;-36.624;-64.282;2024-02-26T05:02:24;22.70;99.90
59973;DHT22;55298;-36.624;-64.282;2024-02-26T05:04:52;22.70;99.90
59973;DHT22;55298;-36.624;-64.282;2024-02-26T05:07:19;22.70;99.90
59973;DHT22;55298;-36.624;-64.282;2024-02-26T05:09:47;22.70;99.90
59973;DHT22;55298;-36.624;-64.282;2024-02-26T05:12:16;22.60;99.90
59973;DHT22;55298;-36.624;-64.282;2024-02-26T05:14:44;22.60;99.90
59973;DHT22;55298;-36.624;-64.282;2024-02-26T05:17:12;22.50;99.90
59973;DHT22;55298;-36.624;-64.282;2024-02-26T05:19:40;22.50;99.90
59973;DHT22;55298;-36.624;-64.282;2024-02-26T05:22:08;22.40;99.90
59973;DHT22;55298;-36.624;-64.282;2024-02-26T05:24:38;22.40;99.90
59973;DHT22;55298;-36.624;-64.282;2024-02-26T05:27:05;22.40;99.90
59973;DHT22;55298;-36.624;-64.282;2024-02-26T05:29:34;22.30;99.90
59973;DHT22;55298;-36.624;-64.282;2024-02-26T05:32:02;22.20;99.90
59973;DHT22;55298;-36.624;-64.282;2024-02-26T05:34:30;22.20;99.90
59973;DHT22;55298;-36.624;-64.282;2024-02-26T05:36:58;22.00;99.90
59973;DHT22;55298;-36.624;-64.282;2024-02-26T05:39:25;22.00;99.90
59973;DHT22;55298;-36.624;-64.282;2024-02-26T05:41:53;22.00;99.90
59973;DHT22;55298;-36.624;-64.282;2024-02-26T05:44:23;21.90;99.90
59973;DHT22;55298;-36.624;-64.282;2024-02-26T05:46:54;21.90;99.90
59973;DHT22;55298;-36.624;-64.282;2024-02-26T05:49:23;21.90;99.90
59973;DHT22;55298;-36.624;-64.282;2024-02-26T05:51:50;21.90;99.90
59973;DHT22;55298;-36.624;-64.282;2024-02-26T05:54:18;21.90;99.90
59973;DHT22;55298;-36.624;-64.282;2024-02-26T05:56:45;21.90;99.90
59973;DHT22;55298;-36.624;-64.282;2024-02-26T05:59:13;21.90;99.90
59973;DHT22;55298;-36.624;-64.282;2024-02-26T06:01:42;21.90;99.90
59973;DHT22;55298;-36.624;-64.282;2024-02-26T06:04:10;21.80;99.90
59973;DHT22;55298;-36.624;-64.282;2024-02-26T06:06:38;21.80;99.90
59973;DHT22;55298;-36.624;-64.282;2024-02-26T06:09:07;21.80;99.90
59973;DHT22;55298;-36.624;-64.282;2024-02-26T06:11:34;21.80;99.90
59973;DHT22;55298;-36.624;-64.282;2024-02-26T06:14:02;21.70;99.90
59973;DHT22;55298;-36.624;-64.282;2024-02-26T06:16:30;21.70;99.90
59973;DHT22;55298;-36.624;-64.282;2024-02-26T06:18:58;21.70;99.90
59973;DHT22;55298;-36.624;-64.282;2024-02-26T06:21:26;21.70;99.90
59973;DHT22;55298;-36.624;-64.282;2024-02-26T06:23:54;21.70;99.90
59973;DHT22;55298;-36.624;-64.282;2024-02-26T06:26:22;21.80;99.90
59973;DHT22;55298;-36.624;-64.282;2024-02-26T06:28:49;21.80;99.90
59973;DHT22;55298;-36.624;-64.282;2024-02-26T06:31:19;21.80;99.90
59973;DHT22;55298;-36.624;-64.282;2024-02-26T06:33:48;21.90;99.90
59973;DHT22;55298;-36.624;-64.282;2024-02-26T06:36:17;21.90;99.90
59973;DHT22;55298;-36.624;-64.282;2024-02-26T06:38:44;21.90;99.90
59973;DHT22;55298;-36.624;-64.282;2024-02-26T06:41:12;21.90;99.90
59973;DHT22;55298;-36.624;-64.282;2024-02-26T06:43:40;22.00;99.90
59973;DHT22;55298;-36.624;-64.282;2024-02-26T06:46:07;22.00;99.90
59973;DHT22;55298;-36.624;-64.282;2024-02-26T06:48:35;22.00;99.90
59973;DHT22;55298;-36.624;-64.282;2024-02-26T06:51:03;22.00;99.90
59973;DHT22;55298;-36.624;-64.282;2024-02-26T06:53:31;22.00;99.90
59973;DHT22;55298;-36.624;-64.282;2024-02-26T06:55:59;22.10;99.90
59973;DHT22;55298;-36.624;-64.282;2024-02-26T06:58:26;22.10;99.90
59973;DHT22;55298;-36.624;-64.282;2024-02-26T07:00:54;22.10;99.90
59973;DHT22;55298;-36.624;-64.282;2024-02-26T07:03:21;22.00;99.90
59973;DHT22;55298;-36.624;-64.282;2024-02-26T07:05:51;22.00;99.90
59973;DHT22;55298;-36.624;-64.282;2024-02-26T07:08:19;22.00;99.90
59973;DHT22;55298;-36.624;-64.282;2024-02-26T07:10:48;22.00;99.90
59973;DHT22;55298;-36.624;-64.282;2024-02-26T07:13:15;22.00;99.90
59973;DHT22;55298;-36.624;-64.282;2024-02-26T07:15:43;22.00;99.90
59973;DHT22;55298;-36.624;-64.282;2024-02-26T07:18:10;22.10;99.90
59973;DHT22;55298;-36.624;-64.282;2024-02-26T07:20:38;22.00;99.90
59973;DHT22;55298;-36.624;-64.282;2024-02-26T07:23:05;22.10;99.90
59973;DHT22;55298;-36.624;-64.282;2024-02-26T07:25:33;22.10;99.90
59973;DHT22;55298;-36.624;-64.282;2024-02-26T07:28:01;22.10;99.90
59973;DHT22;55298;-36.624;-64.282;2024-02-26T07:30:28;22.10;99.90
59973;DHT22;55298;-36.624;-64.282;2024-02-26T07:32:56;22.10;99.90
59973;DHT22;55298;-36.624;-64.282;2024-02-26T07:35:24;22.10;99.90
59973;DHT22;55298;-36.624;-64.282;2024-02-26T07:37:54;22.20;99.90
59973;DHT22;55298;-36.624;-64.282;2024-02-26T07:40:21;22.20;99.90
59973;DHT22;55298;-36.624;-64.282;2024-02-26T07:42:49;22.30;99.90
59973;DHT22;55298;-36.624;-64.282;2024-02-26T07:45:17;22.30;99.90
59973;DHT22;55298;-36.624;-64.282;2024-02-26T07:47:47;22.30;99.90
59973;DHT22;55298;-36.624;-64.282;2024-02-26T07:50:15;22.30;99.90
59973;DHT22;55298;-36.624;-64.282;2024-02-26T07:52:43;22.40;99.90
59973;DHT22;55298;-36.624;-64.282;2024-02-26T07:55:11;22.40;99.90
59973;DHT22;55298;-36.624;-64.282;2024-02-26T07:57:42;22.30;99.90
59973;DHT22;55298;-36.624;-64.282;2024-02-26T08:00:11;22.40;99.90
59973;DHT22;55298;-36.624;-64.282;2024-02-26T08:02:43;22.30;99.90
59973;DHT22;55298;-36.624;-64.282;2024-02-26T08:05:11;22.40;99.90
59973;DHT22;55298;-36.624;-64.282;2024-02-26T08:07:38;22.30;99.90
59973;DHT22;55298;-36.624;-64.282;2024-02-26T08:10:06;22.20;99.90
59973;DHT22;55298;-36.624;-64.282;2024-02-26T08:12:34;22.10;99.90
59973;DHT22;55298;-36.624;-64.282;2024-02-26T08:15:02;22.00;99.90
59973;DHT22;55298;-36.624;-64.282;2024-02-26T08:17:30;21.90;99.90
59973;DHT22;55298;-36.624;-64.282;2024-02-26T08:20:00;21.80;99.90
59973;DHT22;55298;-36.624;-64.282;2024-02-26T08:22:27;21.70;99.90
59973;DHT22;55298;-36.624;-64.282;2024-02-26T08:24:55;21.60;99.90
59973;DHT22;55298;-36.624;-64.282;2024-02-26T08:27:23;21.60;99.90
59973;DHT22;55298;-36.624;-64.282;2024-02-26T08:29:50;21.50;99.90
59973;DHT22;55298;-36.624;-64.282;2024-02-26T08:32:18;21.40;99.90
59973;DHT22;55298;-36.624;-64.282;2024-02-26T08:34:46;21.40;99.90
59973;DHT22;55298;-36.624;-64.282;2024-02-26T08:37:15;21.40;99.90
59973;DHT22;55298;-36.624;-64.282;2024-02-26T08:39:42;21.40;99.90
59973;DHT22;55298;-36.624;-64.282;2024-02-26T08:42:10;21.30;99.90
59973;DHT22;55298;-36.624;-64.282;2024-02-26T08:44:37;21.40;99.90
59973;DHT22;55298;-36.624;-64.282;2024-02-26T08:47:05;21.40;99.90
59973;DHT22;55298;-36.624;-64.282;2024-02-26T08:49:32;21.40;99.90
59973;DHT22;55298;-36.624;-64.282;2024-02-26T08:52:00;21.30;99.90
59973;DHT22;55298;-36.624;-64.282;2024-02-26T08:54:29;21.30;99.90
59973;DHT22;55298;-36.624;-64.282;2024-02-26T08:56:57;21.30;99.90
59973;DHT22;55298;-36.624;-64.282;2024-02-26T08:59:25;21.20;99.90
59973;DHT22;55298;-36.624;-64.282;2024-02-26T09:01:53;21.30;99.90
59973;DHT22;55298;-36.624;-64.282;2024-02-26T09:04:20;21.30;99.90
59973;DHT22;55298;-36.624;-64.282;2024-02-26T09:06:48;21.30;99.90
59973;DHT22;55298;-36.624;-64.282;2024-02-26T09:09:16;21.30;99.90
59973;DHT22;55298;-36.624;-64.282;2024-02-26T09:11:43;21.30;99.90
59973;DHT22;55298;-36.624;-64.282;2024-02-26T09:14:11;21.40;99.90
59973;DHT22;55298;-36.624;-64.282;2024-02-26T09:16:39;21.40;99.90
59973;DHT22;55298;-36.624;-64.282;2024-02-26T09:19:06;21.30;99.90
59973;DHT22;55298;-36.624;-64.282;2024-02-26T09:21:34;21.30;99.90
59973;DHT22;55298;-36.624;-64.282;2024-02-26T09:24:01;21.30;99.90
59973;DHT22;55298;-36.624;-64.282;2024-02-26T09:26:29;21.40;99.90
59973;DHT22;55298;-36.624;-64.282;2024-02-26T09:28:57;21.40;99.90
59973;DHT22;55298;-36.624;-64.282;2024-02-26T09:31:26;21.40;99.90
59973;DHT22;55298;-36.624;-64.282;2024-02-26T09:33:54;21.40;99.90
59973;DHT22;55298;-36.624;-64.282;2024-02-26T09:36:21;21.40;99.90
59973;DHT22;55298;-36.624;-64.282;2024-02-26T09:38:49;21.40;99.90
59973;DHT22;55298;-36.624;-64.282;2024-02-26T09:41:17;21.40;99.90
59973;DHT22;55298;-36.624;-64.282;2024-02-26T09:43:46;21.40;99.90
59973;DHT22;55298;-36.624;-64.282;2024-02-26T09:46:16;21.50;99.90
59973;DHT22;55298;-36.624;-64.282;2024-02-26T09:48:48;21.40;99.90
59973;DHT22;55298;-36.624;-64.282;2024-02-26T09:51:17;21.50;99.90
59973;DHT22;55298;-36.624;-64.282;2024-02-26T09:53:47;21.50;99.90
59973;DHT22;55298;-36.624;-64.282;2024-02-26T09:56:16;21.60;99.90
59973;DHT22;55298;-36.624;-64.282;2024-02-26T09:58:44;21.60;99.90
59973;DHT22;55298;-36.624;-64.282;2024-02-26T10:01:18;21.70;99.90
59973;DHT22;55298;-36.624;-64.282;2024-02-26T10:03:54;21.60;99.90
59973;DHT22;55298;-36.624;-64.282;2024-02-26T10:06:23;21.60;99.90
59973;DHT22;55298;-36.624;-64.282;2024-02-26T10:08:52;21.60;99.90
59973;DHT22;55298;-36.624;-64.282;2024-02-26T10:11:21;21.60;99.90
59973;DHT22;55298;-36.624;-64.282;2024-02-26T10:13:49;21.60;99.90
59973;DHT22;55298;-36.624;-64.282;2024-02-26T10:16:18;21.50;99.90
59973;DHT22;55298;-36.624;-64.282;2024-02-26T10:18:49;21.60;99.90
59973;DHT22;55298;-36.624;-64.282;2024-02-26T10:21:21;21.60;99.90
59973;DHT22;55298;-36.624;-64.282;2024-02-26T10:23:49;21.70;99.90
59973;DHT22;55298;-36.624;-64.282;2024-02-26T10:26:18;21.70;99.90
59973;DHT22;55298;-36.624;-64.282;2024-02-26T10:28:48;21.70;99.90
59973;DHT22;55298;-36.624;-64.282;2024-02-26T10:31:16;21.80;99.90
59973;DHT22;55298;-36.624;-64.282;2024-02-26T10:33:45;21.80;99.90
59973;DHT22;55298;-36.624;-64.282;2024-02-26T10:36:14;21.80;99.90
59973;DHT22;55298;-36.624;-64.282;2024-02-26T10:38:46;21.80;99.90
59973;DHT22;55298;-36.624;-64.282;2024-02-26T10:41:15;21.90;99.90
59973;DHT22;55298;-36.624;-64.282;2024-02-26T10:43:47;21.90;99.90
59973;DHT22;55298;-36.624;-64.282;2024-02-26T10:46:15;21.90;99.90
59973;DHT22;55298;-36.624;-64.282;2024-02-26T10:49:03;22.00;99.90
59973;DHT22;55298;-36.624;-64.282;2024-02-26T10:51:55;22.10;99.90
59973;DHT22;55298;-36.624;-64.282;2024-02-26T10:54:27;22.10;99.90
59973;DHT22;55298;-36.624;-64.282;2024-02-26T10:57:03;22.10;99.90
59973;DHT22;55298;-36.624;-64.282;2024-02-26T10:59:33;22.10;99.90
59973;DHT22;55298;-36.624;-64.282;2024-02-26T11:02:18;22.20;99.90
59973;DHT22;55298;-36.624;-64.282;2024-02-26T11:05:19;22.20;99.90
59973;DHT22;55298;-36.624;-64.282;2024-02-26T11:08:04;22.30;99.90
59973;DHT22;55298;-36.624;-64.282;2024-02-26T11:10:53;22.30;99.90
59973;DHT22;55298;-36.624;-64.282;2024-02-26T11:13:29;22.40;99.90
59973;DHT22;55298;-36.624;-64.282;2024-02-26T11:16:09;22.40;99.90
59973;DHT22;55298;-36.624;-64.282;2024-02-26T11:18:39;22.40;99.90
59973;DHT22;55298;-36.624;-64.282;2024-02-26T11:21:18;22.50;99.90
59973;DHT22;55298;-36.624;-64.282;2024-02-26T11:24:12;22.50;99.90
59973;DHT22;55298;-36.624;-64.282;2024-02-26T11:27:00;22.60;99.90
59973;DHT22;55298;-36.624;-64.282;2024-02-26T11:29:39;22.60;99.90
59973;DHT22;55298;-36.624;-64.282;2024-02-26T11:32:08;22.60;99.90
59973;DHT22;55298;-36.624;-64.282;2024-02-26T11:34:43;22.70;99.90
59973;DHT22;55298;-36.624;-64.282;2024-02-26T11:37:13;22.70;99.90
59973;DHT22;55298;-36.624;-64.282;2024-02-26T11:39:48;22.70;99.90
59973;DHT22;55298;-36.624;-64.282;2024-02-26T11:42:17;22.80;99.90
59973;DHT22;55298;-36.624;-64.282;2024-02-26T11:44:45;22.90;99.90
59973;DHT22;55298;-36.624;-64.282;2024-02-26T11:47:32;22.90;99.90
59973;DHT22;55298;-36.624;-64.282;2024-02-26T11:50:32;23.00;99.90
59973;DHT22;55298;-36.624;-64.282;2024-02-26T11:53:38;23.10;99.90
59973;DHT22;55298;-36.624;-64.282;2024-02-26T11:56:21;23.20;99.90
59973;DHT22;55298;-36.624;-64.282;2024-02-26T11:58:57;23.20;99.90
59973;DHT22;55298;-36.624;-64.282;2024-02-26T12:01:37;23.20;99.90
59973;DHT22;55298;-36.624;-64.282;2024-02-26T12:04:23;23.40;99.90
59973;DHT22;55298;-36.624;-64.282;2024-02-26T12:06:56;23.50;99.90
59973;DHT22;55298;-36.624;-64.282;2024-02-26T12:09:36;23.80;99.90
59973;DHT22;55298;-36.624;-64.282;2024-02-26T12:12:06;24.20;99.90
59973;DHT22;55298;-36.624;-64.282;2024-02-26T12:17:22;24.70;99.90
59973;DHT22;55298;-36.624;-64.282;2024-02-26T12:19:51;24.80;99.90
59973;DHT22;55298;-36.624;-64.282;2024-02-26T12:22:25;24.80;99.90
59973;DHT22;55298;-36.624;-64.282;2024-02-26T12:25:05;24.70;99.90
59973;DHT22;55298;-36.624;-64.282;2024-02-26T12:27:37;24.70;99.90
59973;DHT22;55298;-36.624;-64.282;2024-02-26T12:30:06;24.60;99.90
59973;DHT22;55298;-36.624;-64.282;2024-02-26T12:32:35;24.60;99.90
59973;DHT22;55298;-36.624;-64.282;2024-02-26T12:35:05;24.50;99.90
59973;DHT22;55298;-36.624;-64.282;2024-02-26T12:37:36;24.40;99.90
59973;DHT22;55298;-36.624;-64.282;2024-02-26T12:40:10;24.30;99.90
59973;DHT22;55298;-36.624;-64.282;2024-02-26T12:42:47;24.30;99.90
59973;DHT22;55298;-36.624;-64.282;2024-02-26T12:45:15;24.30;99.90
59973;DHT22;55298;-36.624;-64.282;2024-02-26T12:47:54;24.40;99.90
59973;DHT22;55298;-36.624;-64.282;2024-02-26T12:50:24;24.40;99.90
59973;DHT22;55298;-36.624;-64.282;2024-02-26T12:52:53;24.30;99.90
59973;DHT22;55298;-36.624;-64.282;2024-02-26T12:55:23;24.40;99.90
59973;DHT22;55298;-36.624;-64.282;2024-02-26T12:57:51;24.40;99.90
59973;DHT22;55298;-36.624;-64.282;2024-02-26T13:00:25;24.40;99.90
59973;DHT22;55298;-36.624;-64.282;2024-02-26T13:02:54;24.40;99.90
59973;DHT22;55298;-36.624;-64.282;2024-02-26T13:05:23;24.30;99.90
59973;DHT22;55298;-36.624;-64.282;2024-02-26T13:07:52;24.30;99.90
59973;DHT22;55298;-36.624;-64.282;2024-02-26T13:10:39;24.30;99.90
59973;DHT22;55298;-36.624;-64.282;2024-02-26T13:13:07;24.30;99.90
59973;DHT22;55298;-36.624;-64.282;2024-02-26T13:15:36;24.30;99.90
59973;DHT22;55298;-36.624;-64.282;2024-02-26T13:18:16;24.30;99.90
59973;DHT22;55298;-36.624;-64.282;2024-02-26T13:20:44;24.30;99.90
59973;DHT22;55298;-36.624;-64.282;2024-02-26T13:23:13;24.30;99.90
59973;DHT22;55298;-36.624;-64.282;2024-02-26T13:25:42;24.30;99.90
59973;DHT22;55298;-36.624;-64.282;2024-02-26T13:28:14;24.30;99.90
59973;DHT22;55298;-36.624;-64.282;2024-02-26T13:30:54;24.40;99.90
59973;DHT22;55298;-36.624;-64.282;2024-02-26T13:33:37;24.40;99.90
59973;DHT22;55298;-36.624;-64.282;2024-02-26T13:36:08;24.40;99.90
59973;DHT22;55298;-36.624;-64.282;2024-02-26T13:38:40;24.40;99.90
59973;DHT22;55298;-36.624;-64.282;2024-02-26T13:41:32;24.30;99.90
59973;DHT22;55298;-36.624;-64.282;2024-02-26T13:43:59;24.30;99.90
59973;DHT22;55298;-36.624;-64.282;2024-02-26T13:46:27;24.30;99.90
59973;DHT22;55298;-36.624;-64.282;2024-02-26T13:48:55;24.20;99.90
59973;DHT22;55298;-36.624;-64.282;2024-02-26T13:51:23;24.20;99.90
59973;DHT22;55298;-36.624;-64.282;2024-02-26T13:53:52;24.20;99.90
59973;DHT22;55298;-36.624;-64.282;2024-02-26T13:56:24;24.20;99.90
59973;DHT22;55298;-36.624;-64.282;2024-02-26T13:58:59;24.30;99.90
59973;DHT22;55298;-36.624;-64.282;2024-02-26T14:01:27;24.30;99.90
59973;DHT22;55298;-36.624;-64.282;2024-02-26T14:03:55;24.30;99.90
59973;DHT22;55298;-36.624;-64.282;2024-02-26T14:06:24;24.40;99.90
59973;DHT22;55298;-36.624;-64.282;2024-02-26T14:08:53;24.40;99.90
59973;DHT22;55298;-36.624;-64.282;2024-02-26T14:11:24;24.50;99.90
59973;DHT22;55298;-36.624;-64.282;2024-02-26T14:13:52;24.60;99.90
59973;DHT22;55298;-36.624;-64.282;2024-02-26T14:16:20;24.70;99.90
59973;DHT22;55298;-36.624;-64.282;2024-02-26T14:18:50;24.80;99.90
59973;DHT22;55298;-36.624;-64.282;2024-02-26T14:21:20;24.80;99.90
59973;DHT22;55298;-36.624;-64.282;2024-02-26T14:23:48;24.90;99.90
59973;DHT22;55298;-36.624;-64.282;2024-02-26T14:26:17;24.80;99.90
59973;DHT22;55298;-36.624;-64.282;2024-02-26T14:28:46;24.80;99.90
59973;DHT22;55298;-36.624;-64.282;2024-02-26T14:31:18;24.80;99.90
59973;DHT22;55298;-36.624;-64.282;2024-02-26T14:33:47;24.80;99.90
59973;DHT22;55298;-36.624;-64.282;2024-02-26T14:36:15;24.90;99.90
59973;DHT22;55298;-36.624;-64.282;2024-02-26T14:38:42;24.80;99.90
59973;DHT22;55298;-36.624;-64.282;2024-02-26T14:41:10;24.90;99.90
59973;DHT22;55298;-36.624;-64.282;2024-02-26T14:43:38;24.90;99.90
59973;DHT22;55298;-36.624;-64.282;2024-02-26T14:46:06;24.90;99.90
59973;DHT22;55298;-36.624;-64.282;2024-02-26T14:48:37;24.90;99.90
59973;DHT22;55298;-36.624;-64.282;2024-02-26T14:51:05;24.80;99.90
59973;DHT22;55298;-36.624;-64.282;2024-02-26T14:53:37;24.90;99.90
59973;DHT22;55298;-36.624;-64.282;2024-02-26T14:56:18;24.90;99.90
59973;DHT22;55298;-36.624;-64.282;2024-02-26T14:58:46;25.00;99.90
59973;DHT22;55298;-36.624;-64.282;2024-02-26T15:01:14;25.00;99.90
59973;DHT22;55298;-36.624;-64.282;2024-02-26T15:03:41;25.00;99.90
59973;DHT22;55298;-36.624;-64.282;2024-02-26T15:06:09;25.00;99.90